Airfield :
LOGIN :

Register | Disclaimer

   EN    FR    IT 

 










Legend :    VFR   Marginal VFR   IFR   Intensive IFR   Very Intensive IFR
Visi :
Ceiling :
>= 8 km
>= 3000ft
5 to 8 km
1000 to 3000 ft
1500m to 5 km
500 to 1000 ft
800 to 1500m
200 to 500 ft
< 800m
< 200 ft
Symbols :   Thunderstorms  Fog  Heavy snow  Heavy precipitations  Wind > 20 kt
SIGMETs :     Misc.  Thunderstorms  Icing  Turbulence  Mountain Waves  Volcanic Ashes






- Airport Elevation : 276 ft


LYVR - Vršac International

CURRENT METAR :
  • 231900Z AUTO 13022G32KT 9999 -RA NSC 12/03 Q1000

EXPIRED METARs :
  • 231830Z AUTO 13025G41KT CAVOK 12/03 Q1000
  • 231800Z AUTO 13023G37KT CAVOK 13/03 Q1000
  • 231730Z AUTO 13021G36KT CAVOK 12/03 Q1001
  • 231700Z 12022G34KT CAVOK 12/03 Q1001
  • 231630Z 14025G46KT CAVOK 13/03 Q1001

TAF TAF LYVR
Valid from the 23 at 18:00 until the 24 at 18:00 UTC


231700Z 2318/2418 14022KT CAVOK TX16/2412Z TN09/2405Z
TEMPO 2318/2320 14020G35KT
BECMG 2408/2410 16025G35KT
BECMG 2416/2418 14035G50KT



MET'MAP, your aeronautical weather chart ! - Copyright ORBIFLY December 2007 - Disclaimer

ORBIFLY MET'MAP TEAM :

Programming & Development : Alexandra Zaïnal
Concept & original design : Baudouin d'Aumeries
Assistance for programming : Marc-Olivier Méhu
Technical & hardware support : Manuel Goepfert

Contact : metmap@orbifly.com




SOURCES & CREDITS :

   NOAA